Airfield :
LOGIN :

Register | Disclaimer

   EN    FR    IT 

 










Legend :    VFR   Marginal VFR   IFR   Intensive IFR   Very Intensive IFR
Visi :
Ceiling :
>= 8 km
>= 3000ft
5 to 8 km
1000 to 3000 ft
1500m to 5 km
500 to 1000 ft
800 to 1500m
200 to 500 ft
< 800m
< 200 ft
Symbols :   Thunderstorms  Fog  Heavy snow  Heavy precipitations  Wind > 20 kt
SIGMETs :     Misc.  Thunderstorms  Icing  Turbulence  Mountain Waves  Volcanic Ashes






- Airport Elevation : 659 ft
- IATA code : LGG


EBLG - Liège

CURRENT METAR :
  • 300320Z 16005KT 8000 -RA FEW041 13/13 Q1016 NOSIG

EXPIRED METARs :
  • 300250Z 18005KT 140V210 8000 FEW041 14/13 Q1016 NOSIG
  • 300220Z 19007KT 6000 FEW042 14/13 Q1016 NOSIG
  • 300150Z 17006KT 120V210 9000 NSC 14/13 Q1016 NOSIG
  • 300120Z 15004KT 6000 NSC 14/13 Q1017 NOSIG
  • 300050Z 19004KT 160V270 4500 BR SCT044 14/14 Q1017 TEMPO 2500

TAF TAF EBLG
Valid from the 30 at 00:00 until the 01 at 06:00 UTC


292312Z 3000/0106 19004KT 9999 FEW020
PROB40
TEMPO 3002/3009 3000 BR BKN004
PROB30
TEMPO 3005/3010 4000 SHRA BKN014TCU
PROB40
TEMPO 0106/0106 4000 SHRA BKN012TCU



MET'MAP, your aeronautical weather chart ! - Copyright ORBIFLY December 2007 - Disclaimer

ORBIFLY MET'MAP TEAM :

Programming & Development : Alexandra Zaïnal
Concept & original design : Baudouin d'Aumeries
Assistance for programming : Marc-Olivier Méhu
Technical & hardware support : Manuel Goepfert

Contact : metmap@orbifly.com




SOURCES & CREDITS :

   NOAA